sensor_id;sensor_type;location;lat;lon;timestamp;pressure;altitude;pressure_sealevel;temperature;humidity
65131;BME280;51709;54.912;8.316;2023-02-26T00:03:59;101911.78;;;1.40;50.16
65131;BME280;51709;54.912;8.316;2023-02-26T00:09:21;101923.56;;;1.39;49.98
65131;BME280;51709;54.912;8.316;2023-02-26T00:14:42;101931.94;;;1.38;50.18
65131;BME280;51709;54.912;8.316;2023-02-26T00:20:04;101936.19;;;1.39;50.00
65131;BME280;51709;54.912;8.316;2023-02-26T00:25:28;101926.84;;;1.36;50.16
65131;BME280;51709;54.912;8.316;2023-02-26T00:30:49;101946.28;;;1.37;50.21
65131;BME280;51709;54.912;8.316;2023-02-26T00:36:28;101943.88;;;1.41;50.33
65131;BME280;51709;54.912;8.316;2023-02-26T00:41:55;101963.88;;;1.34;50.27
65131;BME280;51709;54.912;8.316;2023-02-26T00:47:30;101960.56;;;1.37;50.39
65131;BME280;51709;54.912;8.316;2023-02-26T00:58:28;101971.25;;;1.28;50.34
65131;BME280;51709;54.912;8.316;2023-02-26T01:03:49;101976.31;;;1.28;50.49
65131;BME280;51709;54.912;8.316;2023-02-26T01:09:16;101989.75;;;1.27;50.71
65131;BME280;51709;54.912;8.316;2023-02-26T01:14:41;101997.28;;;1.50;50.05
65131;BME280;51709;54.912;8.316;2023-02-26T01:20:08;101997.66;;;1.61;49.91
65131;BME280;51709;54.912;8.316;2023-02-26T01:25:50;101991.56;;;1.80;49.68
65131;BME280;51709;54.912;8.316;2023-02-26T01:31:34;101991.13;;;1.92;49.49
65131;BME280;51709;54.912;8.316;2023-02-26T01:37:10;101992.94;;;1.96;49.44
65131;BME280;51709;54.912;8.316;2023-02-26T01:42:34;102001.28;;;2.19;49.04
65131;BME280;51709;54.912;8.316;2023-02-26T01:48:05;102006.34;;;1.93;49.57
65131;BME280;51709;54.912;8.316;2023-02-26T01:53:26;102007.34;;;1.73;50.08
65131;BME280;51709;54.912;8.316;2023-02-26T01:58:48;102007.03;;;1.63;50.71
65131;BME280;51709;54.912;8.316;2023-02-26T02:04:12;102008.81;;;1.66;50.69
65131;BME280;51709;54.912;8.316;2023-02-26T02:09:34;102012.25;;;1.68;50.69
65131;BME280;51709;54.912;8.316;2023-02-26T02:37:26;102041.91;;;1.72;51.23
65131;BME280;51709;54.912;8.316;2023-02-26T02:43:10;102048.91;;;1.79;51.44
65131;BME280;51709;54.912;8.316;2023-02-26T02:48:39;102056.34;;;1.75;51.25
65131;BME280;51709;54.912;8.316;2023-02-26T02:54:09;102059.47;;;1.67;51.62
65131;BME280;51709;54.912;8.316;2023-02-26T02:59:35;102078.56;;;1.59;51.85
65131;BME280;51709;54.912;8.316;2023-02-26T03:04:57;102088.00;;;1.63;51.83
65131;BME280;51709;54.912;8.316;2023-02-26T03:10:18;102086.28;;;1.62;52.04
65131;BME280;51709;54.912;8.316;2023-02-26T03:16:06;102098.22;;;1.66;52.23
65131;BME280;51709;54.912;8.316;2023-02-26T03:21:48;102105.13;;;1.71;52.22
65131;BME280;51709;54.912;8.316;2023-02-26T03:27:51;102109.28;;;1.68;52.46
65131;BME280;51709;54.912;8.316;2023-02-26T03:33:21;102113.41;;;1.66;52.31
65131;BME280;51709;54.912;8.316;2023-02-26T03:38:49;102111.75;;;1.67;52.49
65131;BME280;51709;54.912;8.316;2023-02-26T03:44:24;102121.88;;;1.67;52.77
65131;BME280;51709;54.912;8.316;2023-02-26T03:49:53;102125.34;;;1.69;52.78
65131;BME280;51709;54.912;8.316;2023-02-26T04:01:03;102149.41;;;1.82;52.73
65131;BME280;51709;54.912;8.316;2023-02-26T04:06:26;102142.25;;;1.94;52.71
65131;BME280;51709;54.912;8.316;2023-02-26T04:11:50;102157.66;;;2.00;52.69
65131;BME280;51709;54.912;8.316;2023-02-26T04:17:12;102169.50;;;2.02;52.73
65131;BME280;51709;54.912;8.316;2023-02-26T04:22:33;102179.75;;;2.05;53.14
65131;BME280;51709;54.912;8.316;2023-02-26T04:27:55;102185.75;;;2.07;52.88
65131;BME280;51709;54.912;8.316;2023-02-26T04:33:16;102189.19;;;2.09;52.91
65131;BME280;51709;54.912;8.316;2023-02-26T04:38:38;102200.16;;;2.09;53.19
65131;BME280;51709;54.912;8.316;2023-02-26T04:43:59;102205.19;;;2.08;53.36
65131;BME280;51709;54.912;8.316;2023-02-26T04:49:22;102209.34;;;2.06;53.42
65131;BME280;51709;54.912;8.316;2023-02-26T04:54:43;102218.38;;;1.99;53.55
65131;BME280;51709;54.912;8.316;2023-02-26T05:00:07;102223.41;;;1.97;53.73
65131;BME280;51709;54.912;8.316;2023-02-26T05:05:31;102219.94;;;1.95;53.64
65131;BME280;51709;54.912;8.316;2023-02-26T05:10:51;102219.81;;;1.92;53.82
65131;BME280;51709;54.912;8.316;2023-02-26T05:16:12;102218.84;;;1.89;53.79
65131;BME280;51709;54.912;8.316;2023-02-26T05:21:33;102228.00;;;1.85;53.92
65131;BME280;51709;54.912;8.316;2023-02-26T05:26:54;102236.31;;;1.82;54.08
65131;BME280;51709;54.912;8.316;2023-02-26T05:32:15;102250.53;;;1.79;54.23
65131;BME280;51709;54.912;8.316;2023-02-26T05:37:36;102253.78;;;1.75;54.26
65131;BME280;51709;54.912;8.316;2023-02-26T05:42:57;102254.56;;;1.74;54.32
65131;BME280;51709;54.912;8.316;2023-02-26T05:48:17;102261.25;;;1.72;54.50
65131;BME280;51709;54.912;8.316;2023-02-26T05:53:38;102267.91;;;1.69;54.48
65131;BME280;51709;54.912;8.316;2023-02-26T05:58:59;102263.59;;;1.67;54.75
65131;BME280;51709;54.912;8.316;2023-02-26T06:04:20;102270.22;;;1.63;54.79
65131;BME280;51709;54.912;8.316;2023-02-26T06:09:40;102282.06;;;1.64;54.81
65131;BME280;51709;54.912;8.316;2023-02-26T06:15:01;102291.31;;;1.64;54.92
65131;BME280;51709;54.912;8.316;2023-02-26T06:20:22;102297.34;;;1.67;54.85
65131;BME280;51709;54.912;8.316;2023-02-26T06:25:42;102299.03;;;1.67;54.87
65131;BME280;51709;54.912;8.316;2023-02-26T06:31:03;102309.28;;;1.70;54.99
65131;BME280;51709;54.912;8.316;2023-02-26T06:36:24;102316.88;;;1.70;55.07
65131;BME280;51709;54.912;8.316;2023-02-26T06:41:45;102333.75;;;1.71;55.20
65131;BME280;51709;54.912;8.316;2023-02-26T06:47:05;102339.75;;;1.73;55.08
65131;BME280;51709;54.912;8.316;2023-02-26T06:52:27;102344.09;;;1.76;55.19
65131;BME280;51709;54.912;8.316;2023-02-26T06:57:48;102350.84;;;1.77;55.30
65131;BME280;51709;54.912;8.316;2023-02-26T07:03:11;102359.38;;;1.79;55.20
65131;BME280;51709;54.912;8.316;2023-02-26T07:08:33;102370.69;;;1.87;55.28
65131;BME280;51709;54.912;8.316;2023-02-26T07:13:54;102379.41;;;1.94;55.21
65131;BME280;51709;54.912;8.316;2023-02-26T07:19:14;102385.53;;;2.00;55.09
65131;BME280;51709;54.912;8.316;2023-02-26T07:24:36;102391.84;;;2.10;55.03
65131;BME280;51709;54.912;8.316;2023-02-26T07:29:56;102400.03;;;2.26;54.95
65131;BME280;51709;54.912;8.316;2023-02-26T07:35:17;102405.31;;;2.32;55.01
65131;BME280;51709;54.912;8.316;2023-02-26T07:40:38;102409.31;;;2.48;54.67
65131;BME280;51709;54.912;8.316;2023-02-26T07:45:58;102408.31;;;2.67;54.51
65131;BME280;51709;54.912;8.316;2023-02-26T07:51:19;102419.31;;;2.90;54.06
65131;BME280;51709;54.912;8.316;2023-02-26T07:56:40;102431.72;;;3.07;53.95
65131;BME280;51709;54.912;8.316;2023-02-26T08:02:02;102435.72;;;3.23;53.74
65131;BME280;51709;54.912;8.316;2023-02-26T08:07:22;102436.72;;;3.28;53.68
65131;BME280;51709;54.912;8.316;2023-02-26T08:12:43;102447.13;;;3.36;53.77
65131;BME280;51709;54.912;8.316;2023-02-26T08:18:04;102455.06;;;3.45;53.64
65131;BME280;51709;54.912;8.316;2023-02-26T08:23:25;102467.25;;;3.55;53.49
65131;BME280;51709;54.912;8.316;2023-02-26T08:28:46;102466.72;;;3.64;53.55
65131;BME280;51709;54.912;8.316;2023-02-26T08:34:07;102477.28;;;3.77;53.38
65131;BME280;51709;54.912;8.316;2023-02-26T08:39:28;102484.22;;;3.81;53.47
65131;BME280;51709;54.912;8.316;2023-02-26T08:44:52;102488.13;;;3.97;53.13
65131;BME280;51709;54.912;8.316;2023-02-26T08:50:13;102498.69;;;4.09;53.04
65131;BME280;51709;54.912;8.316;2023-02-26T08:55:33;102499.03;;;4.20;53.06
65131;BME280;51709;54.912;8.316;2023-02-26T09:00:54;102503.69;;;4.34;52.80
65131;BME280;51709;54.912;8.316;2023-02-26T09:06:15;102512.63;;;4.48;52.49
65131;BME280;51709;54.912;8.316;2023-02-26T09:11:35;102514.75;;;4.63;52.49
65131;BME280;51709;54.912;8.316;2023-02-26T09:16:56;102530.63;;;4.83;52.08
65131;BME280;51709;54.912;8.316;2023-02-26T09:22:17;102535.53;;;5.06;51.80
65131;BME280;51709;54.912;8.316;2023-02-26T09:27:37;102536.81;;;5.20;51.73
65131;BME280;51709;54.912;8.316;2023-02-26T09:32:58;102544.75;;;5.31;51.72
65131;BME280;51709;54.912;8.316;2023-02-26T09:38:19;102547.56;;;5.40;51.73
65131;BME280;51709;54.912;8.316;2023-02-26T09:44:01;102542.31;;;5.66;51.48
65131;BME280;51709;54.912;8.316;2023-02-26T09:55:04;102537.31;;;6.37;50.54
65131;BME280;51709;54.912;8.316;2023-02-26T10:00:57;102556.66;;;6.63;50.35
65131;BME280;51709;54.912;8.316;2023-02-26T10:06:34;102559.31;;;7.08;49.90
65131;BME280;51709;54.912;8.316;2023-02-26T10:12:06;102558.84;;;7.26;49.74
65131;BME280;51709;54.912;8.316;2023-02-26T10:17:41;102566.41;;;7.64;49.43
65131;BME280;51709;54.912;8.316;2023-02-26T10:28:58;102569.31;;;8.32;48.34
65131;BME280;51709;54.912;8.316;2023-02-26T10:40:16;102592.72;;;9.14;47.16
65131;BME280;51709;54.912;8.316;2023-02-26T10:51:12;102597.16;;;11.20;44.22
65131;BME280;51709;54.912;8.316;2023-02-26T10:56:33;102608.63;;;16.93;34.35
65131;BME280;51709;54.912;8.316;2023-02-26T11:01:54;102614.72;;;21.26;28.84
65131;BME280;51709;54.912;8.316;2023-02-26T11:07:14;102602.84;;;24.36;25.96
65131;BME280;51709;54.912;8.316;2023-02-26T11:12:35;102607.84;;;27.73;22.44
65131;BME280;51709;54.912;8.316;2023-02-26T11:17:56;102606.81;;;29.04;21.73
65131;BME280;51709;54.912;8.316;2023-02-26T11:23:20;102612.44;;;29.48;21.28
65131;BME280;51709;54.912;8.316;2023-02-26T11:28:45;102604.53;;;29.11;21.95
65131;BME280;51709;54.912;8.316;2023-02-26T11:34:08;102609.31;;;30.83;20.42
65131;BME280;51709;54.912;8.316;2023-02-26T11:39:37;102604.84;;;27.92;23.29
65131;BME280;51709;54.912;8.316;2023-02-26T11:45:12;102605.91;;;27.34;23.67
65131;BME280;51709;54.912;8.316;2023-02-26T11:50:41;102601.41;;;24.12;27.23
65131;BME280;51709;54.912;8.316;2023-02-26T11:56:08;102606.53;;;23.42;27.36
65131;BME280;51709;54.912;8.316;2023-02-26T12:01:30;102616.66;;;19.07;33.23
65131;BME280;51709;54.912;8.316;2023-02-26T12:06:52;102612.16;;;19.71;31.62
65131;BME280;51709;54.912;8.316;2023-02-26T12:23:59;102600.78;;;20.80;29.01
65131;BME280;51709;54.912;8.316;2023-02-26T12:35:43;102596.69;;;19.38;30.61
65131;BME280;51709;54.912;8.316;2023-02-26T12:41:32;102593.56;;;22.21;27.04
65131;BME280;51709;54.912;8.316;2023-02-26T13:04:02;102602.75;;;18.42;33.19
65131;BME280;51709;54.912;8.316;2023-02-26T13:15:51;102604.31;;;17.38;33.67
65131;BME280;51709;54.912;8.316;2023-02-26T13:21:25;102601.81;;;19.96;29.82
65131;BME280;51709;54.912;8.316;2023-02-26T13:26:50;102609.50;;;23.53;24.20
65131;BME280;51709;54.912;8.316;2023-02-26T13:32:21;102599.28;;;25.68;22.11
65131;BME280;51709;54.912;8.316;2023-02-26T13:37:46;102592.03;;;21.50;26.42
65131;BME280;51709;54.912;8.316;2023-02-26T13:48:54;102610.31;;;18.17;30.69
65131;BME280;51709;54.912;8.316;2023-02-26T14:05:08;102599.72;;;15.49;33.82
65131;BME280;51709;54.912;8.316;2023-02-26T14:16:19;102608.59;;;12.75;37.48
65131;BME280;51709;54.912;8.316;2023-02-26T14:21:52;102605.94;;;11.88;38.17
65131;BME280;51709;54.912;8.316;2023-02-26T14:38:40;102598.50;;;10.59;39.03
65131;BME280;51709;54.912;8.316;2023-02-26T14:44:20;102601.03;;;10.53;38.76
65131;BME280;51709;54.912;8.316;2023-02-26T14:49:44;102597.56;;;10.47;38.71
65131;BME280;51709;54.912;8.316;2023-02-26T14:55:37;102594.09;;;10.39;38.92
65131;BME280;51709;54.912;8.316;2023-02-26T15:23:41;102610.94;;;10.14;39.43
65131;BME280;51709;54.912;8.316;2023-02-26T15:29:05;102621.09;;;10.03;39.71
65131;BME280;51709;54.912;8.316;2023-02-26T15:34:26;102612.28;;;9.78;40.01
65131;BME280;51709;54.912;8.316;2023-02-26T15:39:49;102623.94;;;9.51;40.52
65131;BME280;51709;54.912;8.316;2023-02-26T15:50:57;102617.28;;;8.99;41.34
65131;BME280;51709;54.912;8.316;2023-02-26T15:56:22;102615.50;;;8.95;41.68
65131;BME280;51709;54.912;8.316;2023-02-26T16:01:44;102618.69;;;8.78;41.94
65131;BME280;51709;54.912;8.316;2023-02-26T16:07:05;102613.31;;;8.63;42.41
65131;BME280;51709;54.912;8.316;2023-02-26T16:12:34;102609.94;;;8.62;42.87
65131;BME280;51709;54.912;8.316;2023-02-26T16:17:58;102617.63;;;8.66;42.97
65131;BME280;51709;54.912;8.316;2023-02-26T16:23:23;102615.03;;;8.62;43.30
65131;BME280;51709;54.912;8.316;2023-02-26T16:28:46;102618.41;;;8.60;43.59
65131;BME280;51709;54.912;8.316;2023-02-26T16:34:33;102615.63;;;8.47;44.24
65131;BME280;51709;54.912;8.316;2023-02-26T16:51:00;102619.16;;;8.07;45.10
65131;BME280;51709;54.912;8.316;2023-02-26T16:56:42;102618.94;;;7.94;45.57
65131;BME280;51709;54.912;8.316;2023-02-26T17:02:17;102635.72;;;7.80;46.05
65131;BME280;51709;54.912;8.316;2023-02-26T17:07:47;102646.47;;;7.65;46.35
65131;BME280;51709;54.912;8.316;2023-02-26T17:13:19;102644.66;;;7.58;46.49
65131;BME280;51709;54.912;8.316;2023-02-26T17:18:44;102657.22;;;7.48;46.79
65131;BME280;51709;54.912;8.316;2023-02-26T17:24:05;102658.69;;;7.37;46.90
65131;BME280;51709;54.912;8.316;2023-02-26T17:29:32;102658.22;;;7.15;47.45
65131;BME280;51709;54.912;8.316;2023-02-26T17:34:54;102666.63;;;7.11;47.48
65131;BME280;51709;54.912;8.316;2023-02-26T17:40:29;102671.44;;;6.99;48.02
65131;BME280;51709;54.912;8.316;2023-02-26T17:45:52;102666.34;;;6.99;47.75
65131;BME280;51709;54.912;8.316;2023-02-26T17:51:13;102673.88;;;6.92;48.06
65131;BME280;51709;54.912;8.316;2023-02-26T17:56:37;102685.63;;;6.86;48.29
65131;BME280;51709;54.912;8.316;2023-02-26T18:01:58;102692.38;;;6.84;48.35
65131;BME280;51709;54.912;8.316;2023-02-26T18:07:19;102698.97;;;6.75;48.72
65131;BME280;51709;54.912;8.316;2023-02-26T18:12:50;102694.53;;;6.68;48.98
65131;BME280;51709;54.912;8.316;2023-02-26T18:18:15;102698.66;;;6.63;49.09
65131;BME280;51709;54.912;8.316;2023-02-26T18:23:37;102698.63;;;6.61;49.03
65131;BME280;51709;54.912;8.316;2023-02-26T18:28:59;102699.13;;;6.48;49.25
65131;BME280;51709;54.912;8.316;2023-02-26T18:34:20;102712.69;;;6.47;49.38
65131;BME280;51709;54.912;8.316;2023-02-26T18:39:44;102710.94;;;6.44;49.44
65131;BME280;51709;54.912;8.316;2023-02-26T18:45:06;102710.91;;;6.43;49.38
65131;BME280;51709;54.912;8.316;2023-02-26T18:50:28;102709.06;;;6.37;49.63
65131;BME280;51709;54.912;8.316;2023-02-26T18:55:49;102713.59;;;6.17;50.28
65131;BME280;51709;54.912;8.316;2023-02-26T19:01:11;102719.38;;;6.10;50.62
65131;BME280;51709;54.912;8.316;2023-02-26T19:06:32;102727.72;;;6.06;50.64
65131;BME280;51709;54.912;8.316;2023-02-26T19:11:53;102722.22;;;5.92;50.93
65131;BME280;51709;54.912;8.316;2023-02-26T19:17:15;102728.69;;;5.80;51.41
65131;BME280;51709;54.912;8.316;2023-02-26T19:22:39;102727.00;;;5.81;51.31
65131;BME280;51709;54.912;8.316;2023-02-26T19:28:01;102729.31;;;5.73;51.46
65131;BME280;51709;54.912;8.316;2023-02-26T19:33:21;102728.34;;;5.69;51.61
65131;BME280;51709;54.912;8.316;2023-02-26T19:38:44;102742.66;;;5.64;51.67
65131;BME280;51709;54.912;8.316;2023-02-26T19:44:10;102747.50;;;5.57;52.17
65131;BME280;51709;54.912;8.316;2023-02-26T19:49:33;102741.41;;;5.51;51.96
65131;BME280;51709;54.912;8.316;2023-02-26T19:54:58;102737.75;;;5.43;52.50
65131;BME280;51709;54.912;8.316;2023-02-26T20:00:19;102747.84;;;5.40;52.38
65131;BME280;51709;54.912;8.316;2023-02-26T20:05:40;102753.50;;;5.31;52.49
65131;BME280;51709;54.912;8.316;2023-02-26T20:11:04;102752.22;;;5.17;52.70
65131;BME280;51709;54.912;8.316;2023-02-26T20:16:27;102764.84;;;5.14;52.66
65131;BME280;51709;54.912;8.316;2023-02-26T20:21:49;102768.81;;;5.05;52.57
65131;BME280;51709;54.912;8.316;2023-02-26T20:27:12;102776.06;;;4.94;52.55
65131;BME280;51709;54.912;8.316;2023-02-26T20:32:34;102772.31;;;4.83;52.82
65131;BME280;51709;54.912;8.316;2023-02-26T20:37:55;102781.41;;;4.76;52.74
65131;BME280;51709;54.912;8.316;2023-02-26T20:43:16;102790.44;;;4.68;52.79
65131;BME280;51709;54.912;8.316;2023-02-26T20:48:39;102799.47;;;4.60;52.97
65131;BME280;51709;54.912;8.316;2023-02-26T20:54:01;102806.09;;;4.55;53.16
65131;BME280;51709;54.912;8.316;2023-02-26T20:59:22;102794.78;;;4.46;53.20
65131;BME280;51709;54.912;8.316;2023-02-26T21:04:43;102796.16;;;4.38;53.28
65131;BME280;51709;54.912;8.316;2023-02-26T21:10:05;102803.50;;;4.30;53.33
65131;BME280;51709;54.912;8.316;2023-02-26T21:15:25;102810.03;;;4.24;53.57
65131;BME280;51709;54.912;8.316;2023-02-26T21:20:48;102810.66;;;4.18;53.49
65131;BME280;51709;54.912;8.316;2023-02-26T21:26:09;102816.34;;;4.11;53.58
65131;BME280;51709;54.912;8.316;2023-02-26T21:31:29;102813.66;;;4.08;53.85
65131;BME280;51709;54.912;8.316;2023-02-26T21:36:50;102816.00;;;4.01;53.70
65131;BME280;51709;54.912;8.316;2023-02-26T21:42:11;102823.38;;;3.95;53.88
65131;BME280;51709;54.912;8.316;2023-02-26T21:47:32;102824.13;;;3.93;53.94
65131;BME280;51709;54.912;8.316;2023-02-26T21:52:52;102830.59;;;3.84;54.10
65131;BME280;51709;54.912;8.316;2023-02-26T21:58:13;102833.81;;;3.80;54.01
65131;BME280;51709;54.912;8.316;2023-02-26T22:03:33;102826.00;;;3.76;54.38
65131;BME280;51709;54.912;8.316;2023-02-26T22:08:54;102825.81;;;3.71;54.29
65131;BME280;51709;54.912;8.316;2023-02-26T22:14:15;102829.75;;;3.63;54.50
65131;BME280;51709;54.912;8.316;2023-02-26T22:19:36;102841.38;;;3.58;54.47
65131;BME280;51709;54.912;8.316;2023-02-26T22:24:57;102846.25;;;3.53;54.57
65131;BME280;51709;54.912;8.316;2023-02-26T22:30:17;102856.22;;;3.48;54.71
65131;BME280;51709;54.912;8.316;2023-02-26T22:35:38;102856.91;;;3.44;54.71
65131;BME280;51709;54.912;8.316;2023-02-26T22:40:59;102856.56;;;3.36;54.82
65131;BME280;51709;54.912;8.316;2023-02-26T22:46:20;102859.88;;;3.34;55.05
65131;BME280;51709;54.912;8.316;2023-02-26T22:51:43;102860.66;;;3.33;54.76
65131;BME280;51709;54.912;8.316;2023-02-26T22:57:04;102863.75;;;3.26;54.77
65131;BME280;51709;54.912;8.316;2023-02-26T23:02:26;102862.63;;;3.19;55.14
65131;BME280;51709;54.912;8.316;2023-02-26T23:07:47;102857.41;;;3.16;55.13
65131;BME280;51709;54.912;8.316;2023-02-26T23:13:08;102866.53;;;3.11;55.18
65131;BME280;51709;54.912;8.316;2023-02-26T23:18:29;102868.91;;;3.07;55.22
65131;BME280;51709;54.912;8.316;2023-02-26T23:23:50;102867.03;;;3.03;55.37
65131;BME280;51709;54.912;8.316;2023-02-26T23:29:11;102865.25;;;3.01;55.35
65131;BME280;51709;54.912;8.316;2023-02-26T23:34:31;102872.56;;;2.95;55.59
65131;BME280;51709;54.912;8.316;2023-02-26T23:39:52;102874.91;;;2.90;55.67
65131;BME280;51709;54.912;8.316;2023-02-26T23:45:13;102876.41;;;2.85;55.71
65131;BME280;51709;54.912;8.316;2023-02-26T23:50:34;102877.72;;;2.76;55.95
65131;BME280;51709;54.912;8.316;2023-02-26T23:55:54;102880.03;;;2.72;55.79
